Osage, IA (50461)

2:26 AM CDT on October 24, 2014 (GMT -0500)
KIAOSAGE1 | Change Station
CLOSE
Current Station
Personal Weather Station
Location: Osage, IA
Elevation: 1173 ft
Nearby Weather Stations
Active Advisory: Dense Fog Advisory

Elev 1173 ft 43.28 °N, 92.82 °W | Updated 4 seconds ago

Overcast
Overcast
48.2 °F
Feels Like 48 °F
N
0.0
Wind Variable Wind from SE
Gusts 0.0 mph

Today
High -- | Low -- °F
--% Chance of Precip.
Yesterday
High -- | Low -- °F
Precip. -- in
7:36 AM 6:14 PM
New Moon, 0% visible
Pressure 30.03 in
Visibility 0.2 miles
Clouds Overcast 200 ft
Windchill 48 °F
Dew Point 44 °F
Humidity 86%
Rainfall 0.00 in
Snow Depth Not available.
UV 0 out of 12
Pollen .10 out of 12
Air Quality Not available.
Flu Activity Sporadic
METAR KCCY 240715Z AUTO 13003KT M1/4SM FG OVC002 09/09 A3003 RMK AO2

More Conditions Fewer Conditions

Pressure 30.03 in
Visibility 0.2 miles
Clouds Overcast 200 ft
Windchill 48 °F
Dew Point 44 °F
Humidity 86%
Rainfall 0.00 in
Snow Depth Not available.
UV 0 out of 12
Pollen .10 out of 12
Air Quality Not available.
Flu Activity Sporadic
METAR KCCY 240715Z AUTO 13003KT M1/4SM FG OVC002 09/09 A3003 RMK AO2

More Conditions Fewer Conditions

10-Day Weather Forecast

Almanac

Astronomy

Oct. 24, 2014 Rise Set
Actual Time 7:36 AM CDT 6:14 PM CDT
Civil Twilight 7:06 AM CDT 6:43 PM CDT
Nautical Twilight 6:33 AM CDT 7:16 PM CDT
Astronomical Twilight 6:00 AM CDT 7:49 PM CDT
Moon 8:16 AM CDT 6:53 PM CDT
Length of Visible Light 11h 36m
Length of Day
10h 37m
Tomorrow will be 2m 45s shorter.
New Moon, 0% of the Moon is Illuminated
Today
New Moon
Oct 30
First Quarter
Nov 6
Full
Nov 14
Last Quarter
Nov 22
New

Today's Extremes

State Highs State Lows

Community

WunderPhotos

Upload Photos

1,764,510 photos uploaded!

WunderBlogs® & News

Nearby

Snow Depth

Station Depth Elevation
No new snow has been reported.

Earthquake Activity

City Distance Mag. Time & Date
No recent earthquake activity has been reported nearby.
Minimum magnitude displayed is 2.5.

Coastal Water Temperatures

Place Temperature
No Stations Reporting

Nearby Weather Stations